Aktuální počasí v Česku a ve světě - METAR

Seznam meteostanic umístěných nejčasteji na letišti v ČR a ve světě

Vyhledat místa podle abecedy:
A B C D E F G H I J K L M N O P Q R S T U V W X Y Z

Filtrovat:

ID stanice:
a/nebo
Název místa (fulltext):
 
Místo (ID)Naposledy načteno 
Brno - Tuřany (Brno/Tu) 18.06.2021 09:00 UTC Zobrazit data
Místo: Brno - Tuřany
Teplota: 28 °C (pocitová: 29.9 °C)
Vítr: 7 m/s z(e) 140°
Počasí: skorojasno
Dohlednost: 35 km
Zákl. oblačnosti: 1/8 1500 m
Vlhkost: 42%
Baghdad (ORBS) 06.06.2012 04:00 UTC  
Bagram (KQSA) 11.05.2016 15:58 UTC Zobrazit METAR
KQSA 111558Z VRB06KT 9999 BKN140 21/09 A3000 RMK AO2A SLP070 T02080091 $
Bahrain (OBBI) 18.06.2021 09:00 UTC Zobrazit METAR
OBBI 180900Z 32022KT 8000 SKC 34/18 Q1000 NOSIG
Baku (UBBB) 18.06.2021 09:00 UTC Zobrazit METAR
UBBB 180900Z 34026KT CAVOK 28/18 Q1012 R88/CLRD// NOSIG
Bamako (GABS) 18.06.2021 09:00 UTC Zobrazit METAR
GABS 180900Z 24008KT CAVOK 29/17 Q1015 NOSIG
Bandar Seri Begawan (WBSB) 17.06.2021 12:00 UTC Zobrazit METAR
WBSB 171200Z 27002KT 9999 FEW015 BKN300 28/26 Q1011 NOSIG
Bangkok (VTBD) 18.06.2021 09:00 UTC Zobrazit METAR
VTBD 180900Z 12012KT 9999 FEW020 34/23 Q1007 NOSIG
Bangui (FEFF) 18.06.2021 09:00 UTC Zobrazit METAR
FEFF 180900Z 17004KT 9999 SCT020 26/21 Q1015 NOSIG
Banja Luka (LQBK) 18.06.2021 09:00 UTC Zobrazit METAR
LQBK 180900Z VRB03KT CAVOK 29/15 Q1018 NOSIG
Banjul (GBYD) 18.06.2021 09:00 UTC Zobrazit METAR
GBYD 180900Z 32009KT 9999 FEW011 28/24 Q1014
Barbados (TBPB) 18.06.2021 09:00 UTC Zobrazit METAR
TBPB 180900Z 09014KT 9999 FEW020 27/20 Q1015 NOSIG
Barcelona (LEBL) 18.06.2021 09:00 UTC Zobrazit METAR
LEBL 180900Z 15003KT CAVOK 26/17 Q1013 NOSIG
Bari (LIBD) 18.06.2021 08:50 UTC Zobrazit METAR
LIBD 180850Z 06007KT 020V090 CAVOK 26/12 Q1017
Basle-Mulhouse (LFSB) 18.06.2021 09:00 UTC Zobrazit METAR
LFSB 180900Z VRB03KT 9999 FEW050 SCT130 27/18 Q1014 NOSIG
Basse-Terre (TFFB) Zatím nenačteno  
Basseterre (TKPK) 17.06.2021 22:00 UTC Zobrazit METAR
TKPK 172200Z 12012KT 9999 FEW020 28/23 Q1017
Beijing (ZBAA) Zatím nenačteno  
Beirut (OLBA) 18.06.2021 09:00 UTC Zobrazit METAR
OLBA 180900Z 25006KT CAVOK 26/18 Q1015 NOSIG
Belfast (EGAA) 18.06.2021 08:50 UTC Zobrazit METAR
EGAA 180850Z 36006KT 300V040 9999 FEW025 13/06 Q1021
Belgrade (LYBE) 18.06.2021 09:00 UTC Zobrazit METAR
LYBE 180900Z 36004KT 310V070 CAVOK 25/18 Q1017 NOSIG
Belize City (MZBZ) 18.06.2021 00:00 UTC Zobrazit METAR
MZBZ 180000Z 10003KT 9999 FEW020 BKN048 29/26 A2979 Q1009 RETS NOSIG
Bergen (ENBR) 18.06.2021 03:50 UTC Zobrazit METAR
ENBR 180350Z 32003KT 9999 FEW003 BKN065 10/09 Q1014 RMK WIND 1200FT 32011KT
Berlin (EDDT) 09.11.2020 06:50 UTC Zobrazit METAR
EDDT 090650Z 09006KT 050V120 3000 BR OVC003 06/05 Q1027
Bermuda Is (TXKF) 18.06.2021 08:47 UTC Zobrazit METAR
TXKF 180847Z 27010KT 9000 -SHRA BKN017 BKN033 BKN079 OVC150 24/21 Q1018
Bern (LSZB) 18.06.2021 08:50 UTC Zobrazit METAR
LSZB 180850Z VRB03KT CAVOK 25/16 Q1016 NOSIG
Billund (EKBI) 18.06.2021 08:50 UTC Zobrazit METAR
EKBI 180850Z AUTO 29006KT 270V330 9999 OVC005/// 18/16 Q1016
Birmingham (EGBB) 18.06.2021 08:50 UTC Zobrazit METAR
EGBB 180850Z 04009KT 9999 -RA FEW030 14/11 Q1016
Bishkek (UAFM) Zatím nenačteno  
Bissau (GGOV) 18.06.2021 09:00 UTC Zobrazit METAR
GGOV 180900Z VRB03KT CAVOK 27/24 Q1015 NOSIG
Bogota (SKBO) 18.06.2021 09:00 UTC Zobrazit METAR
SKBO 180900Z 03005KT 9999 FEW020 SCT070 11/10 Q1027 NOSIG RMK A3035
Bologna (LIPE) 18.06.2021 08:50 UTC Zobrazit METAR
LIPE 180850Z 29007KT 240V310 CAVOK 27/18 Q1017
Bordeaux (LFBD) 18.06.2021 09:00 UTC Zobrazit METAR
LFBD 180900Z AUTO 24008KT 210V280 9999 BKN018 BKN024 OVC040 22/18 Q1014 TEMPO BKN013
Bornholm (EKRN) 15.06.2021 06:50 UTC Zobrazit METAR
EKRN 150650Z AUTO 31010KT 9999 SCT140/// SCT160/// 14/09 Q1018
Brasilia (SBBR) 18.06.2021 09:00 UTC Zobrazit METAR
SBBR 180900Z 20001KT CAVOK 12/08 Q1022
Bratislava (LZIB) 18.06.2021 09:00 UTC Zobrazit METAR
LZIB 180900Z 12010KT 090V150 CAVOK 28/14 Q1018 NOSIG
Brazzaville (FCBB) 18.06.2021 09:00 UTC Zobrazit METAR
FCBB 180900Z 24004KT 170V270 8000 SCT016 26/21 Q1018 NOSIG
Bremen (EDDW) 18.06.2021 08:50 UTC Zobrazit METAR
EDDW 180850Z 36007KT 310V030 CAVOK 26/19 Q1013 NOSIG
Brest (UMBB) Zatím nenačteno  
Brest (LFRB) 18.06.2021 09:00 UTC Zobrazit METAR
LFRB 180900Z AUTO 01010KT 330V040 9999 OVC017 16/13 Q1014 TEMPO BKN013
Brno (LKTB) 18.06.2021 09:00 UTC Zobrazit METAR
LKTB 180900Z 15011KT 120V180 CAVOK 28/14 Q1018 NOSIG
Brussels (EBBR) 18.06.2021 08:50 UTC Zobrazit METAR
EBBR 180850Z 11005KT 070V140 CAVOK 24/21 Q1012 NOSIG
Bucharest (LRBS) 18.06.2021 09:00 UTC Zobrazit METAR
LRBS 180900Z 26005KT 8000 -RA FEW020 21/19 Q1014 NOSIG
Budapest (LHBP) 18.06.2021 09:00 UTC Zobrazit METAR
LHBP 180900Z 12007KT 080V160 CAVOK 27/15 Q1019 NOSIG
Buenos Aires (SABE) 18.06.2021 09:00 UTC Zobrazit METAR
SABE 180900Z 19003KT 160V230 9999 SCT030 06/01 Q1029 NOSIG
Bujumbura (HBBA) 17.06.2021 07:00 UTC Zobrazit METAR
HBBA 170700Z 16002KT 6000 FEW025 BKN100 25/18 Q1016 NOSIG
Burgas (LBBG) 18.06.2021 09:00 UTC Zobrazit METAR
LBBG 180900Z 28010KT 9999 -RA FEW018 BKN037 21/19 Q1014 NOSIG
Bydgoszcz (EPBY) 18.06.2021 09:00 UTC Zobrazit METAR
EPBY 180900Z 16011KT 120V210 CAVOK 28/10 Q1019
Reklama

Reklama


Newslettter

Počasí na Váš email

Emaily jsou bez reklamy a bez spamu



Odhlásit newsletter



Kontaktujte nás

Kontaktujte Slunečno.cz

Kontaktujte provozovatele Slunecno.cz

Další české internetové stránky (nejen) o počasí najdete v katalogu TOPlist - weby o počasí nebo vyhledejte na internetu, co jste tu na Počasí Slunečno Slunečnu zatím nenašli:
Přidat mezzi oblíbené stránkyPřidat Slunečno.cz do oblíbených | Nastavit jako HOMEPAGENastavit Slunečno.cz jako HOMEPAGE

Posunout stránku nahoru Posunout stránku nahoru Posunout stránku nahoru
Reklama